Time;durP1;ratioP1;P1;durP2;ratioP2;P2;SDS_P1;SDS_P2;PMS_P1;PMS_P2;Temp;Humidity;BMP_temperature;BMP_pressure;BME280_temperature;BME280_humidity;BME280_pressure;Samples;Min_cycle;Max_cycle;Signal;HPM_P1;HPM_P2
2021/01/16 00:01:05;;;;;;;34.17;15.45;;;-6.50;64.20;;;;;;5098450;28;20027;-49
2021/01/16 00:03:31;;;;;;;33.63;14.57;;;-6.40;64.10;;;;;;5097813;28;20035;-48
2021/01/16 00:06:00;;;;;;;35.75;14.70;;;-6.40;63.90;;;;;;5098331;28;20024;-50
2021/01/16 00:08:31;;;;;;;33.45;14.55;;;-6.40;64.00;;;;;;5098052;28;20024;-48
2021/01/16 00:10:59;;;;;;;28.13;13.80;;;-6.40;64.00;;;;;;5097953;28;20020;-49
2021/01/16 00:13:27;;;;;;;32.22;16.13;;;-6.30;64.10;;;;;;5098121;28;20035;-51
2021/01/16 00:15:53;;;;;;;34.63;15.70;;;-6.30;64.20;;;;;;5097240;28;20036;-48
2021/01/16 00:18:21;;;;;;;28.00;14.10;;;-6.30;64.20;;;;;;5096952;28;20466;-48
2021/01/16 00:20:50;;;;;;;31.98;14.10;;;-6.30;64.30;;;;;;5097774;28;20056;-48
2021/01/16 00:23:17;;;;;;;33.17;16.35;;;-6.30;64.50;;;;;;5097685;28;20477;-48
2021/01/16 00:25:43;;;;;;;32.20;14.68;;;-6.20;64.70;;;;;;5097021;28;20458;-49
2021/01/16 00:28:24;;;;;;;31.45;14.57;;;-6.20;64.80;;;;;;5098131;28;20028;-49
2021/01/16 00:30:50;;;;;;;30.15;14.23;;;-6.20;64.90;;;;;;5097880;28;20092;-49
2021/01/16 00:33:18;;;;;;;32.85;14.40;;;-6.10;65.40;;;;;;5096842;28;20456;-53
2021/01/16 00:35:44;;;;;;;29.73;13.15;;;-6.10;64.80;;;;;;5096399;28;20426;-50
2021/01/16 00:38:10;;;;;;;31.13;14.68;;;-6.10;64.70;;;;;;5096511;28;20414;-53
2021/01/16 00:40:37;;;;;;;36.38;15.27;;;-6.00;64.80;;;;;;5095907;28;20027;-55
2021/01/16 00:43:12;;;;;;;31.10;13.65;;;-6.00;64.80;;;;;;5096461;28;20024;-49
2021/01/16 00:45:39;;;;;;;29.13;12.50;;;-6.00;64.70;;;;;;5095069;28;20020;-51
2021/01/16 00:48:10;;;;;;;33.50;13.50;;;-6.00;64.70;;;;;;5096622;28;20047;-49
2021/01/16 00:50:35;;;;;;;30.23;13.25;;;-6.00;64.60;;;;;;5096465;28;20027;-50
2021/01/16 00:53:01;;;;;;;24.35;12.27;;;-5.90;64.90;;;;;;5096479;28;20081;-52
2021/01/16 00:55:27;;;;;;;28.98;12.07;;;-5.90;64.70;;;;;;5093369;28;20308;-59
2021/01/16 00:57:57;;;;;;;25.55;12.45;;;-5.90;64.50;;;;;;5096646;28;20035;-59
2021/01/16 01:00:27;;;;;;;21.75;11.25;;;-5.80;64.40;;;;;;5096023;28;20027;-58
2021/01/16 01:02:53;;;;;;;28.33;13.10;;;-5.80;64.30;;;;;;5096034;28;20110;-59
2021/01/16 01:05:23;;;;;;;23.58;11.55;;;-5.80;64.20;;;;;;5096884;28;20122;-59
2021/01/16 01:07:50;;;;;;;26.95;11.38;;;-5.80;64.10;;;;;;5096327;28;20058;-59
2021/01/16 01:10:18;;;;;;;33.53;13.40;;;-5.80;63.90;;;;;;5095955;28;20032;-59
2021/01/16 01:12:44;;;;;;;30.17;13.77;;;-5.80;63.60;;;;;;5096956;28;20102;-59
2021/01/16 01:15:10;;;;;;;32.50;14.85;;;-5.90;63.40;;;;;;5097025;28;20517;-59
2021/01/16 01:17:36;;;;;;;24.42;11.98;;;-5.90;63.60;;;;;;5095655;28;20421;-59
2021/01/16 01:20:04;;;;;;;23.30;10.65;;;-5.90;63.70;;;;;;5096398;28;20036;-59
2021/01/16 01:22:38;;;;;;;28.42;12.00;;;-5.90;63.90;;;;;;5096608;28;20433;-59
2021/01/16 01:25:06;;;;;;;23.05;10.68;;;-5.90;64.10;;;;;;5096402;28;20487;-59
2021/01/16 01:27:32;;;;;;;27.48;11.20;;;-5.90;64.20;;;;;;5097027;28;20020;-59
2021/01/16 01:29:59;;;;;;;25.52;11.30;;;-5.90;64.30;;;;;;5096982;28;20051;-58
2021/01/16 01:32:24;;;;;;;29.40;12.98;;;-5.90;64.30;;;;;;5096899;28;20030;-59
2021/01/16 01:34:50;;;;;;;27.15;11.93;;;-5.90;64.20;;;;;;5096750;28;20437;-58
2021/01/16 01:37:16;;;;;;;33.47;14.07;;;-5.90;64.10;;;;;;5097265;28;20028;-59
2021/01/16 01:39:42;;;;;;;33.20;13.10;;;-5.90;64.20;;;;;;5096138;28;20426;-58
2021/01/16 01:42:14;;;;;;;30.10;14.32;;;-5.90;64.20;;;;;;5096482;28;20016;-59
2021/01/16 01:44:40;;;;;;;27.45;12.65;;;-5.90;64.40;;;;;;5096545;28;20039;-59
2021/01/16 01:47:06;;;;;;;25.17;12.82;;;-5.90;64.30;;;;;;5096252;28;20360;-59
2021/01/16 01:49:31;;;;;;;23.75;12.00;;;-5.90;64.30;;;;;;5096430;28;20024;-59
2021/01/16 01:51:58;;;;;;;28.42;13.18;;;-5.90;64.40;;;;;;5096811;28;20059;-59
2021/01/16 01:54:25;;;;;;;24.83;11.20;;;-5.90;64.40;;;;;;5095954;28;20028;-58
2021/01/16 01:56:53;;;;;;;30.20;12.82;;;-5.90;64.40;;;;;;5095965;28;20060;-59
2021/01/16 01:59:19;;;;;;;25.00;12.68;;;-5.80;64.70;;;;;;5096127;28;20020;-59
2021/01/16 02:01:50;;;;;;;22.52;12.18;;;-5.80;64.80;;;;;;5096272;28;20028;-59
2021/01/16 02:04:18;;;;;;;25.23;12.23;;;-5.80;64.60;;;;;;5095678;28;20036;-59
2021/01/16 02:06:44;;;;;;;24.35;11.82;;;-5.70;64.40;;;;;;5096317;28;20425;-59
2021/01/16 02:09:11;;;;;;;21.85;11.15;;;-5.70;64.30;;;;;;5095653;28;20035;-58
2021/01/16 02:11:37;;;;;;;25.13;11.60;;;-5.70;64.30;;;;;;5095638;28;20107;-58
2021/01/16 02:14:02;;;;;;;20.75;9.50;;;-5.70;64.30;;;;;;5096104;28;20108;-59
2021/01/16 02:16:36;;;;;;;23.02;11.63;;;-5.70;64.10;;;;;;5095179;28;20048;-59
2021/01/16 02:19:06;;;;;;;26.52;11.68;;;-5.60;64.20;;;;;;5094824;28;20783;-59
2021/01/16 02:21:37;;;;;;;19.08;10.55;;;-5.60;64.10;;;;;;5091977;28;20056;-59
2021/01/16 02:24:11;;;;;;;23.17;11.50;;;-5.60;63.90;;;;;;5094398;28;20031;-59
2021/01/16 02:27:03;;;;;;;19.95;9.70;;;-5.60;63.80;;;;;;5095169;28;20027;-59
2021/01/16 02:29:29;;;;;;;20.58;9.93;;;-5.60;63.80;;;;;;5095891;28;20119;-59
2021/01/16 02:32:06;;;;;;;17.92;8.30;;;-5.60;63.60;;;;;;5096058;28;20350;-59
2021/01/16 02:34:39;;;;;;;23.08;9.80;;;-5.60;63.40;;;;;;5094823;28;20032;-59
2021/01/16 02:37:31;;;;;;;20.52;10.50;;;-5.60;63.20;;;;;;5096314;28;20051;-59
2021/01/16 02:40:26;;;;;;;20.67;9.43;;;-5.60;63.00;;;;;;5094370;28;20027;-59
2021/01/16 02:43:16;;;;;;;20.08;10.68;;;-5.70;62.90;;;;;;5079654;28;20426;-59
2021/01/16 02:45:45;;;;;;;30.20;11.63;;;-5.70;63.00;;;;;;5101543;28;20070;-59
2021/01/16 02:48:20;;;;;;;25.35;11.93;;;-5.70;63.20;;;;;;5102058;28;20310;-59
2021/01/16 02:50:51;;;;;;;31.85;13.70;;;-5.80;63.20;;;;;;5102201;28;20042;-59
2021/01/16 02:53:22;;;;;;;26.52;12.80;;;-5.80;63.10;;;;;;5100582;28;20035;-59
2021/01/16 02:55:50;;;;;;;28.20;12.95;;;-5.90;62.90;;;;;;5100145;28;20032;-59
2021/01/16 02:58:16;;;;;;;27.65;11.50;;;-5.90;62.80;;;;;;5102579;28;20020;-59
2021/01/16 03:00:43;;;;;;;26.80;11.57;;;-5.90;63.10;;;;;;5101472;28;20066;-59
2021/01/16 03:03:09;;;;;;;25.38;11.05;;;-5.90;63.20;;;;;;5102324;28;20020;-58
2021/01/16 03:05:35;;;;;;;26.45;11.02;;;-6.00;63.20;;;;;;5101647;28;20477;-59
2021/01/16 03:08:02;;;;;;;26.38;10.82;;;-5.90;63.30;;;;;;5102588;28;20055;-59
2021/01/16 03:10:31;;;;;;;20.67;9.52;;;-6.00;63.20;;;;;;5101409;28;20028;-59
2021/01/16 03:12:57;;;;;;;21.85;9.98;;;-5.90;63.50;;;;;;5102476;28;20027;-59
2021/01/16 03:15:24;;;;;;;21.55;10.13;;;-5.90;63.50;;;;;;5102251;28;20039;-59
2021/01/16 03:17:52;;;;;;;26.95;11.45;;;-5.90;63.50;;;;;;5102433;28;20020;-59
2021/01/16 03:20:30;;;;;;;21.10;9.65;;;-5.90;63.60;;;;;;5102242;28;20052;-49
2021/01/16 03:22:58;;;;;;;19.08;9.93;;;-5.90;63.60;;;;;;5102010;28;20020;-49
2021/01/16 03:25:26;;;;;;;23.10;11.05;;;-5.80;63.70;;;;;;5102287;28;20438;-50
2021/01/16 03:27:53;;;;;;;23.55;11.38;;;-5.80;63.60;;;;;;5102131;28;20507;-53
2021/01/16 03:30:19;;;;;;;21.40;10.77;;;-5.80;63.60;;;;;;5101178;28;20020;-50
2021/01/16 03:32:47;;;;;;;24.85;11.15;;;-5.80;63.60;;;;;;5101960;28;20082;-50
2021/01/16 03:35:16;;;;;;;22.75;10.23;;;-5.80;63.50;;;;;;5101892;28;20031;-50
2021/01/16 03:37:46;;;;;;;30.63;13.40;;;-5.80;63.60;;;;;;5100430;28;20024;-49
2021/01/16 03:40:13;;;;;;;27.55;12.02;;;-5.70;63.70;;;;;;5100301;28;20465;-59
2021/01/16 03:42:40;;;;;;;46.58;15.55;;;-5.70;63.80;;;;;;5100708;28;20494;-59
2021/01/16 03:45:08;;;;;;;53.03;17.15;;;-5.70;63.80;;;;;;5101527;28;20073;-59
2021/01/16 03:47:34;;;;;;;40.35;15.25;;;-5.70;63.70;;;;;;5102141;28;20019;-59
2021/01/16 03:50:00;;;;;;;40.03;16.23;;;-5.60;63.80;;;;;;5101793;28;20032;-59
2021/01/16 03:52:31;;;;;;;47.10;16.92;;;-5.60;63.80;;;;;;5101210;28;20085;-59
2021/01/16 03:54:57;;;;;;;43.22;18.05;;;-5.60;63.60;;;;;;5096055;28;20032;-59
2021/01/16 03:57:24;;;;;;;38.95;15.63;;;-5.50;63.30;;;;;;5098144;28;20070;-59
2021/01/16 03:59:51;;;;;;;33.65;16.00;;;-5.50;63.10;;;;;;5097717;28;20043;-59
2021/01/16 04:02:17;;;;;;;37.80;15.95;;;-5.50;63.20;;;;;;5095986;28;20323;-59
2021/01/16 04:04:44;;;;;;;35.15;16.33;;;-5.50;63.10;;;;;;5096961;28;20031;-59
2021/01/16 04:07:09;;;;;;;33.42;14.25;;;-5.50;63.10;;;;;;5096054;28;20422;-58
2021/01/16 04:09:35;;;;;;;38.22;16.83;;;-5.50;63.10;;;;;;5097449;28;20106;-59
2021/01/16 04:12:01;;;;;;;32.58;15.88;;;-5.50;63.30;;;;;;5097784;28;20028;-59
2021/01/16 04:14:27;;;;;;;31.65;15.10;;;-5.50;63.50;;;;;;5096383;28;20032;-59
2021/01/16 04:16:53;;;;;;;34.83;16.17;;;-5.50;63.60;;;;;;5097938;28;20051;-59
2021/01/16 04:19:19;;;;;;;39.42;17.73;;;-5.50;63.50;;;;;;5097807;28;20028;-59
2021/01/16 04:21:46;;;;;;;30.45;15.82;;;-5.50;63.50;;;;;;5096601;28;20055;-59
2021/01/16 04:24:12;;;;;;;39.72;17.52;;;-5.40;63.60;;;;;;5097782;28;20433;-58
2021/01/16 04:26:38;;;;;;;29.85;14.95;;;-5.40;63.50;;;;;;5097969;28;20055;-59
2021/01/16 04:29:03;;;;;;;33.13;15.25;;;-5.40;63.50;;;;;;5097978;28;20121;-59
2021/01/16 04:31:29;;;;;;;35.80;16.63;;;-5.40;63.60;;;;;;5097697;28;20023;-59
2021/01/16 04:33:55;;;;;;;28.30;14.55;;;-5.30;63.80;;;;;;5098086;28;20028;-59
2021/01/16 04:36:20;;;;;;;35.83;16.58;;;-5.30;64.00;;;;;;5097218;28;20061;-59
2021/01/16 04:38:46;;;;;;;31.65;15.07;;;-5.30;64.10;;;;;;5098038;28;20346;-59
2021/01/16 04:41:13;;;;;;;35.65;16.23;;;-5.30;64.10;;;;;;5096199;28;20031;-59
2021/01/16 04:43:40;;;;;;;29.88;13.50;;;-5.30;64.20;;;;;;5091590;28;20479;-59
2021/01/16 04:46:08;;;;;;;35.00;17.52;;;-5.20;64.00;;;;;;5095862;28;20028;-59
2021/01/16 04:48:35;;;;;;;32.78;15.55;;;-5.20;63.90;;;;;;5096282;28;20031;-59
2021/01/16 04:51:02;;;;;;;36.85;15.55;;;-5.20;63.90;;;;;;5096838;28;20036;-59
2021/01/16 04:53:39;;;;;;;32.47;15.48;;;-5.10;64.00;;;;;;5094713;28;20081;-60
2021/01/16 04:56:06;;;;;;;32.38;13.77;;;-5.10;63.90;;;;;;5096378;28;20024;-59
2021/01/16 04:58:38;;;;;;;35.63;15.40;;;-5.00;64.00;;;;;;5096471;28;20114;-59
2021/01/16 05:01:07;;;;;;;31.60;15.48;;;-5.00;63.90;;;;;;5095988;28;20332;-59
2021/01/16 05:03:44;;;;;;;36.90;16.65;;;-5.00;63.90;;;;;;5095494;28;20032;-59
2021/01/16 05:06:12;;;;;;;34.28;14.68;;;-4.90;63.90;;;;;;5096654;28;20016;-59
2021/01/16 05:08:40;;;;;;;30.00;14.35;;;-4.90;64.00;;;;;;5097572;28;20054;-59
2021/01/16 05:11:16;;;;;;;31.52;15.57;;;-4.90;63.90;;;;;;5097193;28;20031;-58
2021/01/16 05:13:45;;;;;;;33.80;16.27;;;-4.90;63.90;;;;;;5096531;28;20036;-59
2021/01/16 05:16:13;;;;;;;36.63;15.35;;;-4.90;63.70;;;;;;5096833;28;20123;-58
2021/01/16 05:18:41;;;;;;;47.88;21.88;;;-4.80;63.80;;;;;;5096763;28;20119;-58
2021/01/16 05:21:09;;;;;;;42.47;18.98;;;-4.80;63.70;;;;;;5096040;28;20438;-58
2021/01/16 05:23:44;;;;;;;48.83;20.65;;;-4.80;63.70;;;;;;5095728;28;20077;-59
2021/01/16 05:26:10;;;;;;;69.38;28.60;;;-4.80;63.60;;;;;;5095478;28;20111;-58
2021/01/16 05:28:37;;;;;;;76.45;31.90;;;-4.80;63.60;;;;;;5095546;28;20051;-59
2021/01/16 05:31:08;;;;;;;63.85;29.80;;;-4.80;63.50;;;;;;5095556;28;20028;-59
2021/01/16 05:33:37;;;;;;;51.17;24.15;;;-4.70;63.50;;;;;;5096596;28;20099;-59
2021/01/16 05:36:06;;;;;;;51.88;23.23;;;-4.80;63.40;;;;;;5096389;28;20048;-59
2021/01/16 05:38:40;;;;;;;44.22;21.38;;;-4.80;63.50;;;;;;5096207;28;20028;-59
2021/01/16 05:41:11;;;;;;;43.03;19.40;;;-4.80;63.60;;;;;;5096701;28;20065;-59
2021/01/16 05:43:39;;;;;;;43.38;21.02;;;-4.70;63.70;;;;;;5096103;28;20342;-59
2021/01/16 05:46:10;;;;;;;48.47;21.50;;;-4.70;63.70;;;;;;5095768;28;20574;-58
2021/01/16 05:48:36;;;;;;;40.38;19.88;;;-4.70;63.70;;;;;;5096290;28;20039;-59
2021/01/16 05:51:03;;;;;;;49.17;21.40;;;-4.80;63.80;;;;;;5095996;28;20036;-59
2021/01/16 05:53:30;;;;;;;49.97;25.02;;;-4.80;64.00;;;;;;5096375;28;20067;-59
2021/01/16 05:55:58;;;;;;;44.10;22.10;;;-4.70;64.70;;;;;;5095407;28;20447;-58
2021/01/16 05:58:33;;;;;;;43.45;20.13;;;-4.70;64.20;;;;;;5095630;28;20027;-59
2021/01/16 06:01:07;;;;;;;50.65;22.55;;;-4.70;64.30;;;;;;5096417;28;20020;-59
2021/01/16 06:03:35;;;;;;;47.35;21.65;;;-4.70;64.20;;;;;;5096129;28;20042;-48
2021/01/16 06:06:02;;;;;;;46.70;22.20;;;-4.60;64.30;;;;;;5094602;28;20030;-49
2021/01/16 06:08:28;;;;;;;40.75;19.48;;;-4.60;64.30;;;;;;5095935;28;20024;-48
2021/01/16 06:10:55;;;;;;;34.70;17.17;;;-4.60;64.40;;;;;;5095426;28;20035;-48
2021/01/16 06:13:24;;;;;;;36.40;17.48;;;-4.60;64.40;;;;;;5095900;28;20303;-50
2021/01/16 06:15:54;;;;;;;37.70;18.17;;;-4.60;64.40;;;;;;5095222;28;20044;-49
2021/01/16 06:18:37;;;;;;;29.20;16.23;;;-4.60;64.30;;;;;;5095930;28;20051;-49
2021/01/16 06:21:03;;;;;;;35.20;16.65;;;-4.50;64.50;;;;;;5094647;28;20064;-49
2021/01/16 06:23:30;;;;;;;31.75;15.50;;;-4.50;64.50;;;;;;5094740;28;20494;-50
2021/01/16 06:25:58;;;;;;;31.40;15.20;;;-4.50;64.00;;;;;;5095874;28;20102;-49
2021/01/16 06:28:25;;;;;;;27.92;15.32;;;-4.60;63.70;;;;;;5095877;28;20028;-49
2021/01/16 06:30:57;;;;;;;33.20;15.20;;;-4.70;63.50;;;;;;5094463;28;20333;-49
2021/01/16 06:33:28;;;;;;;29.45;15.18;;;-4.80;63.00;;;;;;5095882;28;20303;-51
2021/01/16 06:36:00;;;;;;;32.88;16.48;;;-4.90;63.00;;;;;;5086276;28;20036;-49
2021/01/16 06:38:34;;;;;;;31.92;15.85;;;-5.00;62.60;;;;;;5085760;28;20081;-50
2021/01/16 06:41:16;;;;;;;28.80;15.45;;;-5.20;62.30;;;;;;5095090;28;20028;-49
2021/01/16 06:43:44;;;;;;;28.25;14.98;;;-5.30;62.70;;;;;;5095230;28;20269;-49
2021/01/16 06:46:15;;;;;;;33.88;15.93;;;-5.40;62.90;;;;;;5094571;28;20024;-49
2021/01/16 06:48:44;;;;;;;;;;;-5.50;63.10;;;;;;5108358;28;20035;-49
2021/01/16 06:51:21;;;;;;;25.77;13.23;;;-5.50;63.30;;;;;;5103377;28;20300;-49
2021/01/16 06:53:47;;;;;;;28.35;15.15;;;-5.60;63.30;;;;;;5094998;28;20039;-52
2021/01/16 06:56:14;;;;;;;24.52;13.32;;;-5.70;63.00;;;;;;5093639;28;20042;-50
2021/01/16 06:58:44;;;;;;;29.88;14.70;;;-5.70;63.10;;;;;;5088302;28;20063;-52
2021/01/16 07:01:11;;;;;;;29.13;14.40;;;-5.80;63.20;;;;;;5084177;28;20028;-51
2021/01/16 07:03:47;;;;;;;26.00;12.27;;;-5.90;63.30;;;;;;5085598;28;20692;-51
2021/01/16 07:06:17;;;;;;;28.88;12.70;;;-5.90;63.50;;;;;;5089244;28;20028;-52
2021/01/16 07:08:44;;;;;;;24.50;12.70;;;-6.00;63.20;;;;;;5078976;28;20024;-48
2021/01/16 07:11:10;;;;;;;23.73;11.35;;;-6.10;63.10;;;;;;5088270;28;20047;-54
2021/01/16 07:13:38;;;;;;;22.88;11.60;;;-6.20;62.90;;;;;;5080388;28;20033;-54
2021/01/16 07:16:05;;;;;;;25.60;12.50;;;-6.20;62.70;;;;;;5084063;28;20032;-50
2021/01/16 07:18:32;;;;;;;33.17;15.45;;;-6.30;63.00;;;;;;5086328;28;20031;-52
2021/01/16 07:20:59;;;;;;;20.75;10.30;;;-6.30;63.20;;;;;;5091455;28;20052;-48
2021/01/16 07:23:25;;;;;;;19.45;10.50;;;-6.40;63.00;;;;;;5090415;28;20073;-52
2021/01/16 07:25:52;;;;;;;24.88;11.27;;;-6.40;62.80;;;;;;5093305;28;20035;-48
2021/01/16 07:28:26;;;;;;;23.10;11.00;;;-6.50;63.00;;;;;;5094963;28;20028;-51
2021/01/16 07:30:52;;;;;;;23.90;11.30;;;-6.50;63.10;;;;;;5095410;28;20133;-48
2021/01/16 07:33:18;;;;;;;24.58;11.00;;;-6.60;62.80;;;;;;5097701;28;20103;-52
2021/01/16 07:35:48;;;;;;;22.80;11.40;;;-6.60;62.90;;;;;;5096261;28;20039;-49
2021/01/16 07:38:15;;;;;;;25.13;12.60;;;-6.70;63.10;;;;;;5094930;28;20016;-47
2021/01/16 07:40:43;;;;;;;27.17;12.77;;;-6.70;63.30;;;;;;5097356;28;20100;-47
2021/01/16 07:43:41;;;;;;;23.30;11.35;;;-6.70;63.30;;;;;;5096673;28;20181;-51
2021/01/16 07:46:11;;;;;;;23.13;10.80;;;-6.70;63.20;;;;;;5080154;28;20106;-47
2021/01/16 07:48:49;;;;;;;19.42;10.02;;;-6.80;63.10;;;;;;5095071;28;20028;-50
2021/01/16 07:51:17;;;;;;;19.00;9.57;;;-6.80;63.00;;;;;;5097860;28;20020;-46
2021/01/16 07:53:44;;;;;;;16.67;9.05;;;-6.80;63.20;;;;;;5097835;28;20055;-48
2021/01/16 07:56:20;;;;;;;20.17;9.20;;;-6.80;63.20;;;;;;5097139;28;20491;-46
2021/01/16 07:59:12;;;;;;;19.77;9.30;;;-6.70;63.40;;;;;;5088755;28;20028;-50
2021/01/16 08:01:37;;;;;;;16.83;8.18;;;-6.80;62.70;;;;;;5098504;28;20330;-48
2021/01/16 08:04:19;;;;;;;17.48;9.10;;;-6.90;62.10;;;;;;5096431;28;20035;-46
2021/01/16 08:07:08;;;;;;;19.13;9.23;;;-6.90;62.20;;;;;;5096622;28;20106;-46
2021/01/16 08:09:52;;;;;;;19.63;9.10;;;-6.90;62.50;;;;;;5097906;28;20088;-47
2021/01/16 08:12:20;;;;;;;88.70;44.15;;;-6.90;62.80;;;;;;5093556;28;20051;-49
2021/01/16 08:14:46;;;;;;;19.95;9.73;;;-6.90;63.30;;;;;;5095485;28;20123;-47
2021/01/16 08:17:47;;;;;;;17.98;9.73;;;-6.90;63.50;;;;;;5096367;28;20111;-50
2021/01/16 08:20:27;;;;;;;16.25;8.10;;;-6.80;63.80;;;;;;5042292;28;20140;-51
2021/01/16 08:22:57;;;;;;;72.43;34.85;;;-6.70;64.00;;;;;;5079233;28;20074;-51
2021/01/16 08:25:25;;;;;;;26.50;12.30;;;-6.70;63.70;;;;;;5097442;28;20058;-51
2021/01/16 08:27:57;;;;;;;19.98;9.68;;;-6.60;63.70;;;;;;5098139;28;20023;-50
2021/01/16 08:30:25;;;;;;;17.77;9.02;;;-6.60;63.30;;;;;;5097539;28;20031;-53
2021/01/16 08:33:08;;;;;;;19.27;9.70;;;-6.60;62.60;;;;;;5098204;28;20032;-54
2021/01/16 08:35:39;;;;;;;21.02;10.35;;;-6.60;62.60;;;;;;5081670;28;20041;-55
2021/01/16 08:38:17;;;;;;;21.13;9.82;;;-6.60;62.80;;;;;;5097536;28;20055;-56
2021/01/16 08:41:10;;;;;;;21.95;11.15;;;-6.60;62.00;;;;;;5096421;28;20105;-56
2021/01/16 08:43:45;;;;;;;23.30;11.07;;;-6.70;61.50;;;;;;5090118;28;20039;-55
2021/01/16 08:46:18;;;;;;;21.40;10.70;;;-6.80;61.60;;;;;;5097193;28;20375;-54
2021/01/16 08:48:57;;;;;;;18.70;10.38;;;-6.90;61.70;;;;;;5088663;28;20038;-55
2021/01/16 08:51:29;;;;;;;35.30;16.10;;;-6.90;62.10;;;;;;5094424;28;20114;-54
2021/01/16 08:54:08;;;;;;;47.15;21.63;;;-6.90;62.30;;;;;;5089464;28;20036;-51
2021/01/16 08:56:34;;;;;;;25.75;12.25;;;-6.90;62.90;;;;;;5075537;28;20036;-55
2021/01/16 08:59:15;;;;;;;31.92;11.88;;;-6.80;62.60;;;;;;5075435;28;20319;-55
2021/01/16 09:01:42;;;;;;;29.70;13.93;;;-6.80;62.50;;;;;;5078880;28;20025;-56
2021/01/16 09:04:37;;;;;;;35.40;15.93;;;-6.80;62.20;;;;;;5088145;28;20028;-56
2021/01/16 09:07:20;;;;;;;32.90;12.98;;;-6.80;62.10;;;;;;5088883;28;20034;-51
2021/01/16 09:09:58;;;;;;;58.80;22.10;;;-6.90;62.00;;;;;;5075266;28;20059;-50
2021/01/16 09:12:38;;;;;;;34.53;13.45;;;-6.90;62.40;;;;;;5075005;28;20074;-50
2021/01/16 09:15:22;;;;;;;37.65;14.90;;;-6.90;62.70;;;;;;5074223;28;20033;-52
2021/01/16 09:18:04;;;;;;;29.67;14.23;;;-6.80;62.90;;;;;;5074938;28;20402;-48
2021/01/16 09:20:41;;;;;;;21.67;11.10;;;-6.70;63.50;;;;;;5075411;28;20053;-52
2021/01/16 09:23:18;;;;;;;48.83;18.85;;;-6.60;63.40;;;;;;5076128;28;20317;-49
2021/01/16 09:25:45;;;;;;;25.02;12.13;;;-6.60;63.00;;;;;;5075406;28;20070;-54
2021/01/16 09:28:11;;;;;;;24.98;13.05;;;-6.50;62.90;;;;;;5076578;28;20028;-51
2021/01/16 09:30:37;;;;;;;22.92;11.48;;;-6.40;62.80;;;;;;5075848;28;20426;-51
2021/01/16 09:33:42;;;;;;;36.95;15.15;;;-6.40;62.40;;;;;;5078846;28;20437;-52
2021/01/16 09:36:08;;;;;;;37.63;15.43;;;-6.40;62.10;;;;;;5082559;28;20461;-50
2021/01/16 09:38:36;;;;;;;23.88;12.60;;;-6.40;62.40;;;;;;5080722;28;20020;-49
2021/01/16 09:41:02;;;;;;;32.28;14.02;;;-6.30;62.70;;;;;;5075749;28;20029;-49
2021/01/16 09:43:31;;;;;;;24.92;12.60;;;-6.30;62.60;;;;;;5075899;28;20035;-47
2021/01/16 09:46:01;;;;;;;31.52;13.45;;;-6.30;62.20;;;;;;5093209;28;20028;-47
2021/01/16 09:48:38;;;;;;;23.55;11.98;;;-6.30;62.00;;;;;;5094199;28;20138;-49
2021/01/16 09:51:05;;;;;;;40.30;17.13;;;-6.30;61.80;;;;;;5085317;28;20029;-51
2021/01/16 09:53:31;;;;;;;30.63;13.18;;;-6.30;61.70;;;;;;5092784;28;20081;-55
2021/01/16 09:55:57;;;;;;;20.75;9.75;;;-6.30;60.70;;;;;;5092067;28;20461;-55
2021/01/16 09:58:40;;;;;;;18.05;9.13;;;-6.40;60.10;;;;;;5093098;28;20095;-56
2021/01/16 10:01:23;;;;;;;29.05;12.45;;;-6.50;59.40;;;;;;5091404;28;20034;-56
2021/01/16 10:03:53;;;;;;;18.83;9.32;;;-6.60;58.90;;;;;;5093255;28;20080;-55
2021/01/16 10:06:20;;;;;;;20.23;9.90;;;-6.70;59.50;;;;;;5098071;27;20298;-55
2021/01/16 10:08:54;;;;;;;17.98;9.52;;;-6.70;59.70;;;;;;5073456;28;20563;-55
2021/01/16 10:11:44;;;;;;;17.83;9.45;;;-6.70;60.00;;;;;;5073652;28;20411;-55
2021/01/16 10:14:18;;;;;;;20.35;10.02;;;-6.70;59.40;;;;;;5073813;28;20032;-56
2021/01/16 10:16:45;;;;;;;19.33;9.57;;;-6.70;59.70;;;;;;5074130;28;20028;-55
2021/01/16 10:19:12;;;;;;;25.17;11.65;;;-6.60;59.80;;;;;;5073148;28;20115;-55
2021/01/16 10:21:52;;;;;;;23.75;10.73;;;-6.50;60.10;;;;;;5073879;28;20064;-55
2021/01/16 10:24:20;;;;;;;23.52;10.93;;;-6.40;60.40;;;;;;5090554;28;20024;-55
2021/01/16 10:26:47;;;;;;;22.80;9.70;;;-6.30;60.30;;;;;;5094977;28;20080;-55
2021/01/16 10:29:37;;;;;;;21.33;9.88;;;-6.10;59.10;;;;;;5095040;28;20073;-55
2021/01/16 10:32:20;;;;;;;23.33;11.13;;;-6.10;58.10;;;;;;5084062;28;20032;-55
2021/01/16 10:34:46;;;;;;;24.83;10.27;;;-6.00;58.00;;;;;;5091012;28;20043;-54
2021/01/16 10:37:12;;;;;;;20.45;10.07;;;-6.00;57.20;;;;;;5094804;28;20028;-55
2021/01/16 10:39:39;;;;;;;20.77;9.68;;;-6.00;57.00;;;;;;5094941;28;20032;-55
2021/01/16 10:42:16;;;;;;;20.77;10.05;;;-6.00;56.50;;;;;;5095303;28;20039;-54
2021/01/16 10:44:42;;;;;;;22.25;9.70;;;-6.00;56.00;;;;;;5093319;28;20028;-55
2021/01/16 10:47:34;;;;;;;21.83;9.57;;;-6.10;54.70;;;;;;5094013;28;20069;-57
2021/01/16 10:50:29;;;;;;;31.48;13.50;;;-6.10;55.00;;;;;;5094161;28;20326;-55
2021/01/16 10:53:01;;;;;;;24.10;9.52;;;-6.10;55.10;;;;;;5094629;28;20028;-56
2021/01/16 10:55:56;;;;;;;27.27;12.07;;;-6.10;54.70;;;;;;5092151;28;20081;-57
2021/01/16 10:58:24;;;;;;;23.30;11.20;;;-6.00;54.10;;;;;;5079927;28;20077;-55
2021/01/16 11:00:57;;;;;;;24.20;10.10;;;-6.00;54.60;;;;;;5094081;28;20357;-55
2021/01/16 11:03:33;;;;;;;20.80;9.73;;;-6.00;53.80;;;;;;5096393;28;20317;-55
2021/01/16 11:06:05;;;;;;;31.00;14.18;;;-5.90;53.80;;;;;;5094873;28;20086;-54
2021/01/16 11:08:35;;;;;;;25.40;11.98;;;-5.90;53.50;;;;;;5091402;28;20422;-56
2021/01/16 11:11:01;;;;;;;22.80;11.07;;;-6.00;52.40;;;;;;5096961;28;20350;-56
2021/01/16 11:13:30;;;;;;;22.85;10.10;;;-6.10;52.80;;;;;;5096223;28;20131;-56
2021/01/16 11:15:57;;;;;;;23.95;11.55;;;-6.20;52.10;;;;;;5096630;28;20043;-54
2021/01/16 11:18:31;;;;;;;19.98;8.90;;;-6.30;51.80;;;;;;5096291;28;20088;-54
2021/01/16 11:21:03;;;;;;;20.60;8.98;;;-6.30;51.50;;;;;;5096493;28;20131;-57
2021/01/16 11:23:47;;;;;;;20.42;8.68;;;-6.40;51.00;;;;;;5096096;28;20336;-55
2021/01/16 11:26:14;;;;;;;20.17;9.70;;;-6.60;50.90;;;;;;5094897;28;20036;-55
2021/01/16 11:28:55;;;;;;;21.70;9.65;;;-6.60;50.50;;;;;;5097221;28;20398;-54
2021/01/16 11:31:31;;;;;;;20.20;8.63;;;-6.60;50.70;;;;;;5097326;28;20027;-55
2021/01/16 11:34:09;;;;;;;34.95;11.50;;;-6.70;50.40;;;;;;5098266;28;20051;-52
2021/01/16 11:36:58;;;;;;;24.27;11.50;;;-6.60;51.80;;;;;;5093746;28;20068;-57
2021/01/16 11:39:43;;;;;;;24.83;12.07;;;-6.60;51.00;;;;;;5087382;28;20131;-55
2021/01/16 11:42:10;;;;;;;23.05;10.50;;;-6.60;50.70;;;;;;5098049;28;20024;-54
2021/01/16 11:44:53;;;;;;;23.75;11.50;;;-6.70;51.10;;;;;;5094728;28;20088;-49
2021/01/16 11:47:18;;;;;;;23.17;11.48;;;-6.70;51.10;;;;;;5093672;28;20023;-50
2021/01/16 11:49:45;;;;;;;23.77;10.65;;;-6.80;51.00;;;;;;5092695;28;20035;-49
2021/01/16 11:52:12;;;;;;;24.50;10.80;;;-6.80;51.30;;;;;;5089432;28;20511;-51
2021/01/16 11:54:38;;;;;;;28.45;13.25;;;-6.90;51.20;;;;;;5093439;28;20352;-51
2021/01/16 11:57:07;;;;;;;20.85;10.27;;;-6.90;51.10;;;;;;5085793;28;20127;-52
2021/01/16 11:59:33;;;;;;;23.50;10.45;;;-7.00;50.30;;;;;;5092366;28;20036;-48
2021/01/16 12:02:00;;;;;;;30.10;13.52;;;-7.10;50.60;;;;;;5079246;28;20107;-50
2021/01/16 12:04:27;;;;;;;27.83;10.73;;;-7.20;50.70;;;;;;5092342;28;20662;-52
2021/01/16 12:06:53;;;;;;;34.97;15.93;;;-7.10;51.20;;;;;;5095954;28;20036;-50
2021/01/16 12:09:20;;;;;;;34.00;14.00;;;-7.10;51.40;;;;;;5095678;28;20024;-49
2021/01/16 12:11:58;;;;;;;28.50;12.50;;;-7.00;51.60;;;;;;5096627;28;20024;-50
2021/01/16 12:14:34;;;;;;;28.27;11.32;;;-6.90;51.40;;;;;;5095942;28;20043;-51
2021/01/16 12:17:10;;;;;;;29.38;12.07;;;-6.90;51.20;;;;;;5096815;28;20040;-49
2021/01/16 12:19:37;;;;;;;30.27;12.60;;;-6.90;50.90;;;;;;5097359;28;20035;-49
2021/01/16 12:22:11;;;;;;;28.45;11.50;;;-6.90;50.80;;;;;;5097322;28;20032;-50
2021/01/16 12:24:38;;;;;;;24.27;12.25;;;-7.00;50.80;;;;;;5097113;28;20407;-49
2021/01/16 12:27:07;;;;;;;31.20;12.98;;;-7.00;51.00;;;;;;5097365;28;20051;-49
2021/01/16 12:29:37;;;;;;;25.85;12.00;;;-7.10;50.80;;;;;;5097252;28;20416;-51
2021/01/16 12:32:08;;;;;;;28.48;12.63;;;-7.20;50.60;;;;;;5097792;28;20024;-49
2021/01/16 12:34:43;;;;;;;35.92;15.57;;;-7.30;50.90;;;;;;5096846;28;20105;-49
2021/01/16 12:37:09;;;;;;;22.02;9.55;;;-7.40;50.90;;;;;;5096747;28;20036;-52
2021/01/16 12:39:35;;;;;;;24.42;10.52;;;-7.50;51.00;;;;;;5096128;28;20115;-51
2021/01/16 12:42:01;;;;;;;36.60;14.38;;;-7.60;50.90;;;;;;5096959;28;20098;-51
2021/01/16 12:44:27;;;;;;;25.17;11.43;;;-7.60;51.20;;;;;;5096170;28;20364;-51
2021/01/16 12:46:53;;;;;;;23.13;11.20;;;-7.70;51.30;;;;;;5097333;28;20103;-52